createdAt,value
2018-06-10T00:02:14.565Z,16.50
2018-06-10T00:07:18.633Z,18.50
2018-06-10T00:12:22.710Z,17.57
2018-06-10T00:17:26.526Z,19.45
2018-06-10T00:22:30.342Z,19.10
2018-06-10T00:27:34.202Z,14.93
2018-06-10T00:32:38.005Z,12.77
2018-06-10T00:37:41.824Z,12.77
2018-06-10T00:42:45.645Z,13.67
2018-06-10T00:47:49.734Z,10.73
2018-06-10T00:52:53.556Z,9.27
2018-06-10T00:57:57.648Z,11.20
2018-06-10T01:03:01.482Z,11.03
2018-06-10T01:08:05.558Z,11.60
2018-06-10T01:13:09.377Z,11.70
2018-06-10T01:18:13.214Z,8.33
2018-06-10T01:23:17.021Z,10.13
2018-06-10T01:28:21.313Z,10.37
2018-06-10T01:33:25.157Z,10.70
2018-06-10T01:38:28.962Z,10.07
2018-06-10T01:43:32.764Z,11.27
2018-06-10T01:48:36.590Z,11.53
2018-06-10T01:53:40.667Z,11.00
2018-06-10T01:58:44.461Z,11.57
2018-06-10T02:03:48.321Z,12.10
2018-06-10T02:08:52.130Z,11.50
2018-06-10T02:13:56.287Z,11.53
2018-06-10T02:19:00.318Z,11.90
2018-06-10T02:24:04.145Z,13.50
2018-06-10T02:29:08.205Z,13.77
2018-06-10T02:34:12.248Z,13.60
2018-06-10T02:39:16.837Z,13.83
2018-06-10T02:44:20.898Z,15.57
2018-06-10T02:49:24.717Z,16.70
2018-06-10T02:54:28.808Z,16.42
2018-06-10T02:59:32.647Z,16.17
2018-06-10T03:04:36.494Z,16.73
2018-06-10T03:09:40.314Z,16.80
2018-06-10T03:14:44.379Z,16.10
2018-06-10T03:19:48.181Z,17.50
2018-06-10T03:24:58.225Z,16.70
2018-06-10T03:30:02.047Z,18.07
2018-06-10T03:35:05.859Z,17.47
2018-06-10T03:40:09.666Z,17.73
2018-06-10T03:45:13.702Z,17.63
2018-06-10T03:50:17.514Z,17.65
2018-06-10T03:55:21.323Z,17.80
2018-06-10T04:00:25.140Z,18.00
2018-06-10T04:05:29.268Z,17.17
2018-06-10T04:10:33.072Z,17.97
2018-06-10T04:15:36.882Z,19.07
2018-06-10T04:20:40.729Z,17.83
2018-06-10T04:25:44.792Z,17.43
2018-06-10T04:30:48.583Z,17.00
2018-06-10T04:35:52.378Z,18.27
2018-06-10T04:40:56.181Z,17.17
2018-06-10T04:46:00.242Z,16.73
2018-06-10T04:51:04.029Z,16.73
2018-06-10T04:56:07.863Z,15.40
2018-06-10T05:01:11.680Z,16.00
2018-06-10T05:06:15.474Z,14.55
2018-06-10T05:11:19.289Z,14.63
2018-06-10T05:16:23.352Z,14.20
2018-06-10T05:21:27.407Z,13.57
2018-06-10T05:26:31.497Z,14.17
2018-06-10T05:31:35.294Z,13.27
2018-06-10T05:36:39.087Z,13.57
2018-06-10T05:41:42.922Z,13.10
2018-06-10T05:46:46.734Z,12.60
2018-06-10T05:51:50.550Z,12.93
2018-06-10T05:56:54.603Z,12.90
2018-06-10T06:01:58.402Z,14.03
2018-06-10T06:07:02.210Z,12.83
2018-06-10T06:12:06.036Z,13.43
2018-06-10T06:17:09.905Z,13.77
2018-06-10T06:22:13.729Z,13.33
2018-06-10T06:27:17.557Z,12.50
2018-06-10T06:32:21.910Z,13.00
2018-06-10T06:37:25.696Z,11.73
2018-06-10T06:42:29.718Z,12.03
2018-06-10T06:47:33.868Z,12.60
2018-06-10T06:52:37.788Z,13.40
2018-06-10T06:57:41.504Z,13.30
2018-06-10T07:02:45.630Z,13.90
2018-06-10T07:07:49.417Z,12.97
2018-06-10T07:12:53.444Z,14.57
2018-06-10T07:17:57.310Z,14.73
2018-06-10T07:23:01.114Z,15.47
2018-06-10T07:28:04.956Z,14.67
2018-06-10T07:33:08.748Z,14.93
2018-06-10T07:38:12.810Z,13.17
2018-06-10T07:43:16.626Z,14.67
2018-06-10T07:48:20.448Z,14.67
2018-06-10T07:53:24.462Z,13.60
2018-06-10T07:58:28.270Z,13.83
2018-06-10T08:03:32.067Z,14.17
2018-06-10T08:08:36.097Z,14.17
2018-06-10T08:13:39.885Z,13.40
2018-06-10T08:18:43.697Z,13.83
2018-06-10T08:23:47.530Z,14.67
2018-06-10T08:28:51.334Z,11.93
2018-06-10T08:33:55.194Z,12.97
2018-06-10T08:38:59.008Z,13.50
2018-06-10T08:44:03.017Z,13.77
2018-06-10T08:49:07.035Z,14.70
2018-06-10T08:54:10.823Z,15.27
2018-06-10T08:59:14.625Z,16.13
2018-06-10T09:04:18.476Z,17.10
2018-06-10T09:09:22.258Z,19.37
2018-06-10T09:14:26.274Z,19.50
2018-06-10T09:19:30.066Z,21.80
2018-06-10T09:24:34.115Z,45.52
2018-06-10T09:29:37.914Z,41.40
2018-06-10T09:34:41.699Z,50.70
2018-06-10T09:39:45.497Z,50.83
2018-06-10T09:44:49.318Z,49.77
2018-06-10T09:49:53.143Z,49.40
2018-06-10T09:54:57.211Z,52.85
2018-06-10T10:00:01.019Z,53.78
2018-06-10T10:05:05.225Z,60.97
2018-06-10T10:10:09.310Z,56.87
2018-06-10T10:15:13.339Z,60.47
2018-06-10T10:20:17.121Z,55.97
2018-06-10T10:25:20.935Z,68.27
2018-06-10T10:30:24.720Z,66.40
2018-06-10T10:35:28.502Z,65.23
2018-06-10T10:40:32.294Z,54.53
2018-06-10T10:45:36.355Z,47.03
2018-06-10T10:50:40.167Z,46.80
2018-06-10T10:55:43.950Z,43.70
2018-06-10T11:00:48.010Z,42.15
2018-06-10T11:05:51.800Z,42.87
2018-06-10T11:10:55.818Z,40.87
2018-06-10T11:15:59.603Z,42.73
2018-06-10T11:21:03.458Z,40.60
2018-06-10T11:26:07.516Z,40.83
2018-06-10T11:31:11.414Z,37.60
2018-06-10T11:36:15.210Z,39.63
2018-06-10T11:41:19.335Z,41.97
2018-06-10T11:46:23.461Z,39.50
2018-06-10T11:51:27.529Z,41.07
2018-06-10T11:56:31.339Z,41.40
2018-06-10T12:01:35.146Z,41.87
2018-06-10T12:06:39.190Z,41.23
2018-06-10T12:11:43.090Z,42.83
2018-06-10T12:16:47.123Z,40.67
2018-06-10T12:21:50.940Z,38.60
2018-06-10T12:26:54.963Z,35.70
2018-06-10T12:32:03.085Z,35.07
2018-06-10T12:37:06.910Z,36.90
2018-06-10T12:42:10.707Z,35.03
2018-06-10T12:47:14.481Z,37.37
2018-06-10T12:52:18.307Z,38.57
2018-06-10T12:57:22.102Z,40.20
2018-06-10T13:02:25.954Z,37.33
2018-06-10T13:07:29.778Z,36.57
2018-06-10T13:12:33.598Z,36.73
2018-06-10T13:17:37.623Z,33.33
2018-06-10T13:22:41.421Z,33.43
2018-06-10T13:27:45.263Z,35.27
2018-06-10T13:32:49.311Z,38.73
2018-06-10T13:37:53.958Z,37.87
2018-06-10T13:42:57.973Z,39.00
2018-06-10T13:48:01.976Z,38.83
2018-06-10T13:53:05.781Z,37.00
2018-06-10T13:58:09.646Z,35.63
2018-06-10T14:03:13.472Z,43.27
2018-06-10T14:08:17.321Z,41.60
2018-06-10T14:13:22.006Z,43.40
2018-06-10T14:18:25.794Z,46.53
2018-06-10T14:23:29.602Z,47.23
2018-06-10T14:28:33.386Z,46.63
2018-06-10T14:33:37.231Z,47.37
2018-06-10T14:38:41.275Z,43.28
2018-06-10T14:43:45.067Z,47.07
2018-06-10T14:48:49.090Z,45.07
2018-06-10T14:53:52.898Z,45.47
2018-06-10T14:58:56.949Z,49.57
2018-06-10T15:04:00.888Z,47.93
2018-06-10T15:09:07.627Z,45.83
2018-06-10T15:14:11.658Z,45.27
2018-06-10T15:19:15.680Z,39.43
2018-06-10T15:24:19.813Z,40.30
2018-06-10T15:29:23.876Z,36.93
2018-06-10T15:34:28.006Z,37.50
2018-06-10T15:39:32.318Z,30.47
2018-06-10T15:44:36.178Z,27.60
2018-06-10T15:49:39.975Z,23.90
2018-06-10T15:54:43.758Z,25.63
2018-06-10T15:59:47.542Z,22.90
2018-06-10T16:04:51.370Z,21.23
2018-06-10T16:09:55.158Z,28.27
2018-06-10T16:14:59.277Z,28.30
2018-06-10T16:20:03.375Z,30.40
2018-06-10T16:25:07.171Z,29.53
2018-06-10T16:30:10.985Z,28.17
2018-06-10T16:35:14.784Z,27.93
2018-06-10T16:40:19.066Z,26.13
2018-06-10T16:45:23.123Z,26.37
2018-06-10T16:50:27.176Z,24.85
2018-06-10T16:55:30.998Z,21.45
2018-06-10T17:00:34.814Z,22.97
2018-06-10T17:05:38.625Z,25.37
2018-06-10T17:10:42.710Z,26.10
2018-06-10T17:15:46.751Z,25.03
2018-06-10T17:20:51.035Z,26.87
2018-06-10T17:25:54.870Z,25.10
2018-06-10T17:30:59.309Z,23.97
2018-06-10T17:36:03.130Z,24.10
2018-06-10T17:41:07.072Z,22.60
2018-06-10T17:46:12.039Z,22.57
2018-06-10T17:51:16.054Z,21.97
2018-06-10T17:56:19.853Z,23.03
2018-06-10T18:01:23.678Z,22.90
2018-06-10T18:06:27.559Z,20.73
2018-06-10T18:11:31.531Z,21.27
2018-06-10T18:16:35.382Z,20.93
2018-06-10T18:21:39.192Z,20.60
2018-06-10T18:26:42.984Z,22.77
2018-06-10T18:31:46.809Z,20.33
2018-06-10T18:36:50.860Z,22.90
2018-06-10T18:41:54.651Z,23.30
2018-06-10T18:46:58.498Z,24.17
2018-06-10T18:52:02.467Z,22.63
2018-06-10T18:57:06.321Z,23.47
2018-06-10T19:02:10.457Z,23.17
2018-06-10T19:07:14.246Z,21.63
2018-06-10T19:12:18.077Z,21.97
2018-06-10T19:17:21.918Z,23.60
2018-06-10T19:22:32.574Z,22.47
2018-06-10T19:27:36.662Z,21.63
2018-06-10T19:32:40.541Z,21.07
2018-06-10T19:37:44.637Z,21.10
2018-06-10T19:42:48.470Z,22.27
2018-06-10T19:47:52.591Z,21.95
2018-06-10T19:52:56.431Z,21.73
2018-06-10T19:58:00.506Z,20.67
2018-06-10T20:03:04.616Z,21.55
2018-06-10T20:08:08.736Z,21.07
2018-06-10T20:13:12.811Z,20.43
2018-06-10T20:18:16.895Z,21.00
2018-06-10T20:23:20.735Z,20.83
2018-06-10T20:28:24.578Z,20.97
2018-06-10T20:33:28.405Z,21.17
2018-06-10T20:38:32.475Z,20.60
2018-06-10T20:43:36.579Z,20.07
2018-06-10T20:48:40.481Z,21.20
2018-06-10T20:53:44.221Z,22.53
2018-06-10T20:58:47.997Z,21.60
2018-06-10T21:03:52.023Z,21.07
2018-06-10T21:08:55.815Z,22.37
2018-06-10T21:13:59.842Z,22.80
2018-06-10T21:19:03.879Z,24.35
2018-06-10T21:24:07.885Z,22.87
2018-06-10T21:29:11.936Z,24.33
2018-06-10T21:34:15.726Z,24.00
2018-06-10T21:39:19.599Z,23.37
2018-06-10T21:44:23.390Z,23.55
2018-06-10T21:49:27.453Z,23.70
2018-06-10T21:54:31.605Z,23.67
2018-06-10T21:59:35.999Z,23.97
2018-06-10T22:04:40.088Z,23.43
2018-06-10T22:09:43.898Z,23.97
2018-06-10T22:14:47.717Z,23.63
2018-06-10T22:19:51.506Z,23.20
2018-06-10T22:24:55.314Z,24.63
2018-06-10T22:29:59.103Z,23.93
2018-06-10T22:35:03.129Z,23.50
2018-06-10T22:40:07.166Z,23.57
2018-06-10T22:45:11.187Z,25.03
2018-06-10T22:50:15.299Z,24.63
2018-06-10T22:55:19.345Z,22.93
2018-06-10T23:00:23.469Z,23.50
2018-06-10T23:05:27.291Z,23.98
2018-06-10T23:10:31.146Z,23.90
2018-06-10T23:15:34.982Z,22.73
2018-06-10T23:20:38.875Z,23.67
2018-06-10T23:25:42.737Z,23.77
2018-06-10T23:30:46.558Z,25.00
2018-06-10T23:35:50.406Z,24.20
2018-06-10T23:40:54.248Z,26.10
2018-06-10T23:45:58.055Z,25.77
2018-06-10T23:51:01.868Z,26.20
2018-06-10T23:56:05.991Z,26.33
